createdAt,value
2023-05-10T00:01:42.498Z,75.46
2023-05-10T00:06:46.098Z,75.45
2023-05-10T00:11:48.504Z,75.67
2023-05-10T00:16:50.753Z,75.59
2023-05-10T00:21:53.051Z,75.79
2023-05-10T00:26:55.169Z,76.09
2023-05-10T00:31:57.408Z,76.35
2023-05-10T00:36:59.554Z,76.67
2023-05-10T00:42:05.594Z,76.91
2023-05-10T00:47:09.005Z,77.03
2023-05-10T00:52:11.229Z,77.10
2023-05-10T00:57:13.297Z,76.67
2023-05-10T01:05:13.803Z,76.62
2023-05-10T01:10:15.977Z,76.27
2023-05-10T01:15:19.102Z,75.49
2023-05-10T01:25:55.737Z,73.98
2023-05-10T01:31:24.770Z,74.45
2023-05-10T01:36:40.522Z,74.58
2023-05-10T01:42:06.723Z,74.74
2023-05-10T01:47:11.115Z,75.26
2023-05-10T01:52:22.504Z,75.33
2023-05-10T01:57:28.998Z,75.54
2023-05-10T02:02:37.845Z,75.32
2023-05-10T02:07:43.795Z,75.36
2023-05-10T02:12:49.570Z,75.31
2023-05-10T02:17:55.657Z,75.49
2023-05-10T02:22:59.611Z,75.29
2023-05-10T02:28:05.622Z,75.47
2023-05-10T02:33:09.036Z,75.51
2023-05-10T02:38:13.653Z,75.29
2023-05-10T02:43:17.522Z,75.69
2023-05-10T02:48:19.506Z,75.72
2023-05-10T02:53:24.632Z,75.87
2023-05-10T02:58:27.647Z,76.05
2023-05-10T03:03:29.793Z,75.93
2023-05-10T03:08:32.504Z,76.17
2023-05-10T03:13:45.524Z,76.22
2023-05-10T03:19:02.829Z,75.71
2023-05-10T03:24:10.108Z,75.63
2023-05-10T03:29:15.357Z,75.30
2023-05-10T03:34:18.462Z,75.26
2023-05-10T03:39:22.324Z,75.07
2023-05-10T03:44:29.296Z,74.88
2023-05-10T03:49:31.485Z,74.92
2023-05-10T03:54:33.777Z,74.67
2023-05-10T03:59:35.993Z,74.89
2023-05-10T04:04:38.338Z,74.88
2023-05-10T04:09:41.930Z,74.77
2023-05-10T04:16:20.152Z,74.26
2023-05-10T04:21:22.254Z,72.72
2023-05-10T04:26:26.119Z,70.67
2023-05-10T04:32:46.710Z,67.95
2023-05-10T04:37:51.827Z,69.15
2023-05-10T04:42:53.792Z,70.43
2023-05-10T04:47:56.153Z,70.23
2023-05-10T04:52:58.392Z,71.04
2023-05-10T04:58:00.461Z,71.27
2023-05-10T05:03:02.535Z,69.65
2023-05-10T05:08:04.980Z,68.61
2023-05-10T05:13:07.358Z,67.52
2023-05-10T05:18:09.540Z,66.54
2023-05-10T05:23:11.573Z,64.53
2023-05-10T05:28:13.526Z,64.51
2023-05-10T05:33:16.494Z,61.34
2023-05-10T05:38:18.641Z,63.19
2023-05-10T05:43:20.672Z,62.94
2023-05-10T05:48:22.828Z,62.07
2023-05-10T05:53:25.031Z,61.80
2023-05-10T05:58:27.167Z,60.75
2023-05-10T06:03:29.397Z,60.63
2023-05-10T06:08:31.375Z,59.64
2023-05-10T06:13:34.496Z,55.70
2023-05-10T06:18:37.032Z,58.34
2023-05-10T06:23:39.090Z,58.34
2023-05-10T06:28:41.879Z,57.30
2023-05-10T06:33:43.865Z,56.18
2023-05-10T06:38:45.919Z,55.52
2023-05-10T06:43:48.214Z,55.11
2023-05-10T06:48:50.238Z,54.61
2023-05-10T06:53:52.114Z,54.12
2023-05-10T06:58:54.371Z,53.75
2023-05-10T07:03:56.509Z,52.90
2023-05-10T07:08:58.723Z,52.53
2023-05-10T07:14:00.808Z,51.89
2023-05-10T07:22:46.355Z,51.39
2023-05-10T07:28:17.403Z,49.87
2023-05-10T07:33:19.710Z,49.16
2023-05-10T07:38:22.030Z,48.31
2023-05-10T07:43:24.171Z,48.86
2023-05-10T07:48:26.501Z,48.66
2023-05-10T07:53:28.688Z,49.52
2023-05-10T07:58:31.184Z,49.33
2023-05-10T08:03:33.260Z,50.22
2023-05-10T08:08:35.350Z,49.92
2023-05-10T08:13:37.416Z,50.42
2023-05-10T08:18:40.581Z,49.87
2023-05-10T08:23:50.156Z,50.28
2023-05-10T08:28:52.167Z,49.14
2023-05-10T08:33:54.263Z,48.07
2023-05-10T08:38:56.214Z,47.95
2023-05-10T08:43:58.731Z,48.19
2023-05-10T08:49:09.983Z,46.59
2023-05-10T08:54:12.150Z,47.16
2023-05-10T08:59:15.293Z,46.91
2023-05-10T09:04:17.500Z,46.35
2023-05-10T09:09:21.646Z,45.90
2023-05-10T09:14:26.025Z,46.41
2023-05-10T09:19:29.277Z,44.66
2023-05-10T09:24:38.894Z,45.40
2023-05-10T09:29:42.567Z,44.92
2023-05-10T09:34:45.996Z,45.65
2023-05-10T09:39:48.020Z,45.89
2023-05-10T09:44:50.056Z,45.80
2023-05-10T09:49:53.706Z,47.22
2023-05-10T09:54:56.072Z,49.03
2023-05-10T10:00:01.520Z,49.71
2023-05-10T10:05:05.005Z,48.76
2023-05-10T10:10:13.315Z,49.56
2023-05-10T10:15:16.935Z,50.80
2023-05-10T10:20:20.926Z,50.99
2023-05-10T10:25:23.454Z,51.38
2023-05-10T10:30:38.069Z,52.49
2023-05-10T10:35:40.453Z,50.77
2023-05-10T10:40:46.664Z,51.58
2023-05-10T10:46:15.007Z,51.36
2023-05-10T10:51:18.555Z,52.70
2023-05-10T10:56:24.713Z,54.21
2023-05-10T11:01:34.315Z,52.12
2023-05-10T11:06:37.153Z,52.51
2023-05-10T11:12:01.602Z,54.32
2023-05-10T11:17:28.882Z,58.03
2023-05-10T11:22:52.882Z,57.31
2023-05-10T11:28:20.772Z,57.74
2023-05-10T11:33:22.848Z,58.61
2023-05-10T11:38:24.912Z,60.02
2023-05-10T11:43:31.530Z,61.98
2023-05-10T11:48:34.358Z,63.43
2023-05-10T11:53:36.443Z,63.52
2023-05-10T11:58:39.777Z,63.78
2023-05-10T12:03:42.142Z,62.54
2023-05-10T12:08:49.145Z,62.96
2023-05-10T12:13:51.589Z,61.64
2023-05-10T12:18:58.510Z,63.58
2023-05-10T12:24:03.433Z,61.72
2023-05-10T12:29:15.371Z,62.44
2023-05-10T12:34:32.816Z,62.45
2023-05-10T12:39:45.736Z,61.59
2023-05-10T12:44:47.838Z,61.92
2023-05-10T12:49:50.174Z,60.66
2023-05-10T12:54:53.715Z,60.82
2023-05-10T12:59:56.160Z,60.96
2023-05-10T13:04:58.236Z,61.57
2023-05-10T13:10:00.562Z,61.34
2023-05-10T13:15:04.119Z,60.64
2023-05-10T13:20:06.843Z,58.94
2023-05-10T13:25:09.674Z,60.51
2023-05-10T13:30:12.597Z,60.73
2023-05-10T13:35:14.711Z,60.91
2023-05-10T13:40:17.225Z,60.87
2023-05-10T13:50:21.584Z,59.91
2023-05-10T13:55:23.764Z,61.29
2023-05-10T14:00:25.817Z,61.66
2023-05-10T14:05:32.131Z,61.84
2023-05-10T14:10:34.326Z,61.75
2023-05-10T14:15:36.303Z,62.63
2023-05-10T14:20:38.560Z,62.49
2023-05-10T14:25:41.922Z,63.57
2023-05-10T14:30:44.158Z,63.69
2023-05-10T14:35:47.850Z,63.62
2023-05-10T14:40:50.463Z,63.31
2023-05-10T14:45:55.083Z,63.92
2023-05-10T14:50:57.221Z,64.33
2023-05-10T14:56:01.344Z,63.95
2023-05-10T15:01:03.776Z,64.19
2023-05-10T15:06:06.734Z,64.91
2023-05-10T15:11:08.963Z,64.59
2023-05-10T15:16:11.868Z,64.89
2023-05-10T15:22:46.601Z,64.53
2023-05-10T15:27:48.880Z,63.47
2023-05-10T15:32:51.148Z,63.57
2023-05-10T15:37:53.496Z,63.08
2023-05-10T15:42:55.736Z,63.42
2023-05-10T15:47:59.275Z,62.31
2023-05-10T15:53:01.467Z,61.68
2023-05-10T15:58:05.965Z,62.05
2023-05-10T16:03:08.391Z,61.40
2023-05-10T16:08:10.538Z,61.30
2023-05-10T16:13:12.554Z,61.26
2023-05-10T16:18:14.799Z,60.33
2023-05-10T16:23:17.632Z,61.56
2023-05-10T16:28:21.281Z,61.38
2023-05-10T16:33:23.454Z,61.82
2023-05-10T16:38:26.830Z,61.01
2023-05-10T16:43:28.680Z,61.33
2023-05-10T16:48:30.781Z,60.05
2023-05-10T16:53:32.909Z,60.74
2023-05-10T16:58:43.900Z,61.08
2023-05-10T17:03:46.511Z,60.79
2023-05-10T17:08:48.666Z,60.99
2023-05-10T17:13:52.401Z,61.41
2023-05-10T17:18:54.282Z,61.58
2023-05-10T17:23:56.293Z,61.91
2023-05-10T17:28:58.833Z,61.54
2023-05-10T17:34:02.191Z,62.05
2023-05-10T17:39:06.359Z,61.83
2023-05-10T17:44:08.344Z,60.60
2023-05-10T17:49:10.636Z,61.86
2023-05-10T17:54:12.628Z,62.22
2023-05-10T17:59:14.569Z,62.65
2023-05-10T18:04:16.853Z,62.29
2023-05-10T18:09:21.193Z,62.33
2023-05-10T18:14:36.461Z,62.25
2023-05-10T18:19:42.766Z,62.53
2023-05-10T18:24:45.102Z,62.68
2023-05-10T18:29:47.390Z,62.95
2023-05-10T18:34:49.544Z,63.38
2023-05-10T18:39:51.908Z,63.37
2023-05-10T18:44:54.991Z,63.24
2023-05-10T18:49:57.351Z,63.32
2023-05-10T18:54:59.391Z,63.25
2023-05-10T19:00:01.447Z,62.92
2023-05-10T19:05:03.588Z,62.96
2023-05-10T19:10:07.465Z,62.78
2023-05-10T19:15:10.506Z,63.45
2023-05-10T19:20:12.477Z,63.71
2023-05-10T19:25:16.931Z,63.97
2023-05-10T19:30:19.093Z,63.85
2023-05-10T19:35:21.011Z,63.93
2023-05-10T19:43:17.937Z,64.02
2023-05-10T19:48:23.686Z,63.30
2023-05-10T19:53:25.642Z,63.71
2023-05-10T19:58:28.919Z,63.86
2023-05-10T20:03:30.949Z,63.81
2023-05-10T20:08:35.409Z,64.17
2023-05-10T20:13:37.480Z,64.65
2023-05-10T20:22:53.104Z,65.06
2023-05-10T20:28:06.251Z,65.17
2023-05-10T20:33:09.392Z,65.43
2023-05-10T20:38:11.503Z,65.50
2023-05-10T20:43:13.313Z,66.72
2023-05-10T20:48:15.668Z,66.09
2023-05-10T20:53:25.983Z,66.47
2023-05-10T20:58:28.228Z,66.71
2023-05-10T21:03:30.232Z,66.69
2023-05-10T21:08:32.160Z,66.75
2023-05-10T21:13:34.034Z,67.27
2023-05-10T21:18:39.114Z,67.23
2023-05-10T21:23:46.449Z,67.77
2023-05-10T21:28:48.621Z,67.31
2023-05-10T21:33:50.921Z,67.18
2023-05-10T21:38:52.904Z,67.04
2023-05-10T21:43:54.865Z,66.92
2023-05-10T21:48:57.410Z,67.25
2023-05-10T21:53:59.635Z,67.55
2023-05-10T21:59:04.954Z,67.64
2023-05-10T22:04:07.029Z,67.34
2023-05-10T22:09:10.107Z,67.59
2023-05-10T22:14:12.249Z,67.92
2023-05-10T22:19:14.063Z,69.16
2023-05-10T22:35:16.603Z,68.68
2023-05-10T22:41:14.756Z,68.81
2023-05-10T22:46:16.875Z,68.62
2023-05-10T22:51:19.019Z,68.59
2023-05-10T22:56:22.718Z,68.63
2023-05-10T23:01:24.985Z,68.64
2023-05-10T23:06:28.246Z,68.32
2023-05-10T23:11:30.234Z,67.71
2023-05-10T23:16:32.316Z,67.61
2023-05-10T23:21:34.588Z,67.25
2023-05-10T23:26:36.710Z,66.73
2023-05-10T23:31:41.127Z,66.78
2023-05-10T23:36:43.449Z,67.03
2023-05-10T23:41:45.663Z,67.25
2023-05-10T23:46:48.771Z,67.77
2023-05-10T23:51:50.793Z,67.94
2023-05-10T23:56:52.920Z,68.33
